LFRO/LAI METAR and TAF weather

Enter ICAO airport designator
Station Type Date Time Source
LFRO METAR 2022/01/25 05:00 UTC NOAA

LFRO 250500Z AUTO 16004KT 0300 R29/0375N FZFG VV/// M01/M01 Q1031


Station Type Date Time Source
LFRO Decoded METAR 2022/01/25 05:00 UTC NOAA

Lannion / Servel, France (LFRO) 48-45N 003-28W
Jan 25, 2022 - 12:00 AM EST / 2022.01.25 0500 UTC
Wind: from the SSE (160 degrees) at 5 MPH (4 KT):0
Visibility: less than 1 mile:0
Sky conditions: obscured
Weather: freezing fog
Temperature: 30 F (-1 C)
Windchill: 24 F (-4 C):1
Dew Point: 30 F (-1 C)
Relative Humidity: 100%
Pressure (altimeter): 30.45 in. Hg (1031 hPa)
ob: LFRO 250500Z AUTO 16004KT 0300 R29/0375N FZFG VV/// M01/M01 Q1031
cycle: 5

Station Type Date Time Source
LFRO TAF 2019/05/15 19:06 UTC NOAA

TAF LFRO 151936Z 1519/1612 CNL

Example: see airport list